sensor_id;sensor_type;location;lat;lon;timestamp;temperature;humidity
32215;DHT22;18708;53.124;23.190;2023-03-08T00:01:08;2.80;99.90
32215;DHT22;18708;53.124;23.190;2023-03-08T00:03:35;2.80;99.90
32215;DHT22;18708;53.124;23.190;2023-03-08T00:06:05;2.80;99.90
32215;DHT22;18708;53.124;23.190;2023-03-08T00:08:33;2.80;99.90
32215;DHT22;18708;53.124;23.190;2023-03-08T00:10:59;2.70;99.90
32215;DHT22;18708;53.124;23.190;2023-03-08T00:13:25;2.50;99.90
32215;DHT22;18708;53.124;23.190;2023-03-08T00:15:50;2.30;99.90
32215;DHT22;18708;53.124;23.190;2023-03-08T00:18:17;2.10;99.90
32215;DHT22;18708;53.124;23.190;2023-03-08T00:20:43;2.00;99.90
32215;DHT22;18708;53.124;23.190;2023-03-08T00:23:08;1.90;99.90
32215;DHT22;18708;53.124;23.190;2023-03-08T00:25:34;1.80;99.90
32215;DHT22;18708;53.124;23.190;2023-03-08T00:28:02;1.70;99.90
32215;DHT22;18708;53.124;23.190;2023-03-08T00:30:28;1.70;99.90
32215;DHT22;18708;53.124;23.190;2023-03-08T00:32:53;1.60;99.90
32215;DHT22;18708;53.124;23.190;2023-03-08T00:35:19;1.60;99.90
32215;DHT22;18708;53.124;23.190;2023-03-08T00:37:45;1.40;99.90
32215;DHT22;18708;53.124;23.190;2023-03-08T00:40:11;1.40;99.90
32215;DHT22;18708;53.124;23.190;2023-03-08T00:42:37;1.50;99.90
32215;DHT22;18708;53.124;23.190;2023-03-08T00:45:02;1.40;99.90
32215;DHT22;18708;53.124;23.190;2023-03-08T00:47:28;1.40;99.90
32215;DHT22;18708;53.124;23.190;2023-03-08T00:49:54;1.40;99.90
32215;DHT22;18708;53.124;23.190;2023-03-08T00:52:19;1.40;99.90
32215;DHT22;18708;53.124;23.190;2023-03-08T00:54:45;1.30;99.90
32215;DHT22;18708;53.124;23.190;2023-03-08T00:57:11;1.30;99.90
32215;DHT22;18708;53.124;23.190;2023-03-08T00:59:36;1.30;99.90
32215;DHT22;18708;53.124;23.190;2023-03-08T01:02:02;1.20;99.90
32215;DHT22;18708;53.124;23.190;2023-03-08T01:04:28;1.20;99.90
32215;DHT22;18708;53.124;23.190;2023-03-08T01:06:53;1.20;99.90
32215;DHT22;18708;53.124;23.190;2023-03-08T01:09:19;1.20;99.90
32215;DHT22;18708;53.124;23.190;2023-03-08T01:11:45;1.20;99.90
32215;DHT22;18708;53.124;23.190;2023-03-08T01:14:10;1.10;99.90
32215;DHT22;18708;53.124;23.190;2023-03-08T01:16:36;1.10;99.90
32215;DHT22;18708;53.124;23.190;2023-03-08T01:19:02;1.00;99.90
32215;DHT22;18708;53.124;23.190;2023-03-08T01:21:29;1.00;99.90
32215;DHT22;18708;53.124;23.190;2023-03-08T01:23:55;1.00;99.90
32215;DHT22;18708;53.124;23.190;2023-03-08T01:26:24;1.10;99.90
32215;DHT22;18708;53.124;23.190;2023-03-08T01:28:50;1.10;99.90
32215;DHT22;18708;53.124;23.190;2023-03-08T01:31:25;1.10;99.90
32215;DHT22;18708;53.124;23.190;2023-03-08T01:33:51;1.00;99.90
32215;DHT22;18708;53.124;23.190;2023-03-08T01:36:20;1.10;99.90
32215;DHT22;18708;53.124;23.190;2023-03-08T01:38:48;1.00;99.90
32215;DHT22;18708;53.124;23.190;2023-03-08T01:41:17;1.00;99.90
32215;DHT22;18708;53.124;23.190;2023-03-08T01:43:43;1.00;99.90
32215;DHT22;18708;53.124;23.190;2023-03-08T01:49:10;1.00;99.90
32215;DHT22;18708;53.124;23.190;2023-03-08T01:51:42;0.90;99.90
32215;DHT22;18708;53.124;23.190;2023-03-08T01:54:34;0.90;99.90
32215;DHT22;18708;53.124;23.190;2023-03-08T01:57:48;0.90;99.90
32215;DHT22;18708;53.124;23.190;2023-03-08T01:59:57;0.90;99.90
32215;DHT22;18708;53.124;23.190;2023-03-08T02:02:29;0.80;99.90
32215;DHT22;18708;53.124;23.190;2023-03-08T02:04:56;0.80;99.90
32215;DHT22;18708;53.124;23.190;2023-03-08T02:07:22;0.80;99.90
32215;DHT22;18708;53.124;23.190;2023-03-08T02:09:48;0.80;99.90
32215;DHT22;18708;53.124;23.190;2023-03-08T02:12:14;0.80;99.90
32215;DHT22;18708;53.124;23.190;2023-03-08T02:14:43;0.80;99.90
32215;DHT22;18708;53.124;23.190;2023-03-08T02:17:10;0.80;99.90
32215;DHT22;18708;53.124;23.190;2023-03-08T02:19:53;0.80;99.90
32215;DHT22;18708;53.124;23.190;2023-03-08T02:22:20;0.70;99.90
32215;DHT22;18708;53.124;23.190;2023-03-08T02:24:46;0.70;99.90
32215;DHT22;18708;53.124;23.190;2023-03-08T02:27:23;0.70;99.90
32215;DHT22;18708;53.124;23.190;2023-03-08T02:29:49;0.70;99.90
32215;DHT22;18708;53.124;23.190;2023-03-08T02:32:15;0.70;99.90
32215;DHT22;18708;53.124;23.190;2023-03-08T02:34:41;0.70;99.90
32215;DHT22;18708;53.124;23.190;2023-03-08T02:37:07;0.60;99.90
32215;DHT22;18708;53.124;23.190;2023-03-08T02:39:33;0.70;99.90
32215;DHT22;18708;53.124;23.190;2023-03-08T02:41:59;0.60;99.90
32215;DHT22;18708;53.124;23.190;2023-03-08T02:44:24;0.60;99.90
32215;DHT22;18708;53.124;23.190;2023-03-08T02:46:50;0.60;99.90
32215;DHT22;18708;53.124;23.190;2023-03-08T02:49:16;0.60;99.90
32215;DHT22;18708;53.124;23.190;2023-03-08T02:51:42;0.60;99.90
32215;DHT22;18708;53.124;23.190;2023-03-08T02:54:08;0.60;99.90
32215;DHT22;18708;53.124;23.190;2023-03-08T02:56:34;0.60;99.90
32215;DHT22;18708;53.124;23.190;2023-03-08T02:59:03;0.60;99.90
32215;DHT22;18708;53.124;23.190;2023-03-08T03:01:29;0.60;99.90
32215;DHT22;18708;53.124;23.190;2023-03-08T03:03:55;0.60;99.90
32215;DHT22;18708;53.124;23.190;2023-03-08T03:06:21;0.60;99.90
32215;DHT22;18708;53.124;23.190;2023-03-08T03:08:47;0.60;99.90
32215;DHT22;18708;53.124;23.190;2023-03-08T03:11:14;0.60;99.90
32215;DHT22;18708;53.124;23.190;2023-03-08T03:13:40;0.60;99.90
32215;DHT22;18708;53.124;23.190;2023-03-08T03:16:08;0.60;99.90
32215;DHT22;18708;53.124;23.190;2023-03-08T03:18:34;0.60;99.90
32215;DHT22;18708;53.124;23.190;2023-03-08T03:21:06;0.60;99.90
32215;DHT22;18708;53.124;23.190;2023-03-08T03:23:34;0.60;99.90
32215;DHT22;18708;53.124;23.190;2023-03-08T03:26:08;0.60;99.90
32215;DHT22;18708;53.124;23.190;2023-03-08T03:28:34;0.60;99.90
32215;DHT22;18708;53.124;23.190;2023-03-08T03:31:00;0.60;99.90
32215;DHT22;18708;53.124;23.190;2023-03-08T03:33:27;0.60;99.90
32215;DHT22;18708;53.124;23.190;2023-03-08T03:35:52;0.60;99.90
32215;DHT22;18708;53.124;23.190;2023-03-08T03:38:18;0.60;99.90
32215;DHT22;18708;53.124;23.190;2023-03-08T03:40:44;0.60;99.90
32215;DHT22;18708;53.124;23.190;2023-03-08T03:43:09;0.60;99.90
32215;DHT22;18708;53.124;23.190;2023-03-08T03:45:35;0.60;99.90
32215;DHT22;18708;53.124;23.190;2023-03-08T03:48:03;0.60;99.90
32215;DHT22;18708;53.124;23.190;2023-03-08T03:50:29;0.60;99.90
32215;DHT22;18708;53.124;23.190;2023-03-08T03:52:54;0.60;99.90
32215;DHT22;18708;53.124;23.190;2023-03-08T03:55:20;0.60;99.90
32215;DHT22;18708;53.124;23.190;2023-03-08T03:57:46;0.60;99.90
32215;DHT22;18708;53.124;23.190;2023-03-08T04:00:12;0.60;99.90
32215;DHT22;18708;53.124;23.190;2023-03-08T04:02:37;0.60;99.90
32215;DHT22;18708;53.124;23.190;2023-03-08T04:05:03;0.60;99.90
32215;DHT22;18708;53.124;23.190;2023-03-08T04:07:29;0.60;99.90
32215;DHT22;18708;53.124;23.190;2023-03-08T04:09:55;0.60;99.90
32215;DHT22;18708;53.124;23.190;2023-03-08T04:12:20;0.60;99.90
32215;DHT22;18708;53.124;23.190;2023-03-08T04:14:46;0.60;99.90
32215;DHT22;18708;53.124;23.190;2023-03-08T04:17:12;0.60;99.90
32215;DHT22;18708;53.124;23.190;2023-03-08T04:19:40;0.60;99.90
32215;DHT22;18708;53.124;23.190;2023-03-08T04:22:06;0.60;99.90
32215;DHT22;18708;53.124;23.190;2023-03-08T04:24:33;0.60;99.90
32215;DHT22;18708;53.124;23.190;2023-03-08T04:26:59;0.60;99.90
32215;DHT22;18708;53.124;23.190;2023-03-08T04:29:25;0.60;99.90
32215;DHT22;18708;53.124;23.190;2023-03-08T04:31:50;0.60;99.90
32215;DHT22;18708;53.124;23.190;2023-03-08T04:34:16;0.60;99.90
32215;DHT22;18708;53.124;23.190;2023-03-08T04:36:42;0.60;99.90
32215;DHT22;18708;53.124;23.190;2023-03-08T04:39:07;0.60;99.90
32215;DHT22;18708;53.124;23.190;2023-03-08T04:41:33;0.50;99.90
32215;DHT22;18708;53.124;23.190;2023-03-08T04:43:58;0.60;99.90
32215;DHT22;18708;53.124;23.190;2023-03-08T04:46:26;0.60;99.90
32215;DHT22;18708;53.124;23.190;2023-03-08T04:48:52;0.60;99.90
32215;DHT22;18708;53.124;23.190;2023-03-08T04:51:21;0.60;99.90
32215;DHT22;18708;53.124;23.190;2023-03-08T04:53:47;0.60;99.90
32215;DHT22;18708;53.124;23.190;2023-03-08T04:56:14;0.60;99.90
32215;DHT22;18708;53.124;23.190;2023-03-08T04:58:41;0.60;99.90
32215;DHT22;18708;53.124;23.190;2023-03-08T05:01:27;0.70;99.90
32215;DHT22;18708;53.124;23.190;2023-03-08T05:03:53;0.70;99.90
32215;DHT22;18708;53.124;23.190;2023-03-08T05:06:21;0.60;99.90
32215;DHT22;18708;53.124;23.190;2023-03-08T05:08:48;0.70;99.90
32215;DHT22;18708;53.124;23.190;2023-03-08T05:11:18;0.70;99.90
32215;DHT22;18708;53.124;23.190;2023-03-08T05:13:44;0.60;99.90
32215;DHT22;18708;53.124;23.190;2023-03-08T05:16:10;0.60;99.90
32215;DHT22;18708;53.124;23.190;2023-03-08T05:18:36;0.70;99.90
32215;DHT22;18708;53.124;23.190;2023-03-08T05:21:07;0.70;99.90
32215;DHT22;18708;53.124;23.190;2023-03-08T05:23:34;0.60;99.90
32215;DHT22;18708;53.124;23.190;2023-03-08T05:26:02;0.60;99.90
32215;DHT22;18708;53.124;23.190;2023-03-08T05:28:31;0.60;99.90
32215;DHT22;18708;53.124;23.190;2023-03-08T05:33:31;0.60;99.90
32215;DHT22;18708;53.124;23.190;2023-03-08T05:35:56;0.60;99.90
32215;DHT22;18708;53.124;23.190;2023-03-08T05:38:23;0.70;99.90
32215;DHT22;18708;53.124;23.190;2023-03-08T05:40:49;0.70;99.90
32215;DHT22;18708;53.124;23.190;2023-03-08T05:43:15;0.70;99.90
32215;DHT22;18708;53.124;23.190;2023-03-08T05:45:41;0.70;99.90
32215;DHT22;18708;53.124;23.190;2023-03-08T05:48:07;0.70;99.90
32215;DHT22;18708;53.124;23.190;2023-03-08T05:50:33;0.70;99.90
32215;DHT22;18708;53.124;23.190;2023-03-08T05:52:58;0.70;99.90
32215;DHT22;18708;53.124;23.190;2023-03-08T05:55:26;0.80;99.90
32215;DHT22;18708;53.124;23.190;2023-03-08T05:57:52;0.80;99.90
32215;DHT22;18708;53.124;23.190;2023-03-08T06:00:18;0.80;99.90
32215;DHT22;18708;53.124;23.190;2023-03-08T06:02:46;0.80;99.90
32215;DHT22;18708;53.124;23.190;2023-03-08T06:05:11;0.80;99.90
32215;DHT22;18708;53.124;23.190;2023-03-08T06:07:37;0.80;99.90
32215;DHT22;18708;53.124;23.190;2023-03-08T06:10:03;0.80;99.90
32215;DHT22;18708;53.124;23.190;2023-03-08T06:12:29;0.90;99.90
32215;DHT22;18708;53.124;23.190;2023-03-08T06:14:55;0.80;99.90
32215;DHT22;18708;53.124;23.190;2023-03-08T06:17:20;0.80;99.90
32215;DHT22;18708;53.124;23.190;2023-03-08T06:19:46;0.80;99.90
32215;DHT22;18708;53.124;23.190;2023-03-08T06:22:14;0.80;99.90
32215;DHT22;18708;53.124;23.190;2023-03-08T06:24:39;0.90;99.90
32215;DHT22;18708;53.124;23.190;2023-03-08T06:27:05;1.10;99.90
32215;DHT22;18708;53.124;23.190;2023-03-08T06:29:31;1.30;99.90
32215;DHT22;18708;53.124;23.190;2023-03-08T06:31:57;1.40;1.00
32215;DHT22;18708;53.124;23.190;2023-03-08T06:34:22;1.60;1.00
32215;DHT22;18708;53.124;23.190;2023-03-08T06:36:48;1.80;1.00
32215;DHT22;18708;53.124;23.190;2023-03-08T06:39:16;1.90;99.90
32215;DHT22;18708;53.124;23.190;2023-03-08T06:41:41;2.10;1.00
32215;DHT22;18708;53.124;23.190;2023-03-08T06:44:08;2.20;1.00
32215;DHT22;18708;53.124;23.190;2023-03-08T06:46:34;2.00;1.00
32215;DHT22;18708;53.124;23.190;2023-03-08T06:49:00;2.10;1.00
32215;DHT22;18708;53.124;23.190;2023-03-08T06:51:25;2.30;1.00
32215;DHT22;18708;53.124;23.190;2023-03-08T06:53:51;2.40;1.00
32215;DHT22;18708;53.124;23.190;2023-03-08T06:56:17;2.30;1.00
32215;DHT22;18708;53.124;23.190;2023-03-08T06:58:43;2.10;1.00
32215;DHT22;18708;53.124;23.190;2023-03-08T07:01:09;2.10;1.00
32215;DHT22;18708;53.124;23.190;2023-03-08T07:03:35;2.00;1.00
32215;DHT22;18708;53.124;23.190;2023-03-08T07:06:07;2.10;1.00
32215;DHT22;18708;53.124;23.190;2023-03-08T07:08:34;1.90;1.00
32215;DHT22;18708;53.124;23.190;2023-03-08T07:11:01;1.90;1.00
32215;DHT22;18708;53.124;23.190;2023-03-08T07:13:27;2.00;1.00
32215;DHT22;18708;53.124;23.190;2023-03-08T07:15:54;2.00;99.90
32215;DHT22;18708;53.124;23.190;2023-03-08T07:18:20;1.90;99.90
32215;DHT22;18708;53.124;23.190;2023-03-08T07:20:54;2.30;99.90
32215;DHT22;18708;53.124;23.190;2023-03-08T07:23:21;2.50;99.90
32215;DHT22;18708;53.124;23.190;2023-03-08T07:25:46;2.40;99.90
32215;DHT22;18708;53.124;23.190;2023-03-08T07:28:12;2.50;99.90
32215;DHT22;18708;53.124;23.190;2023-03-08T07:30:38;3.20;99.90
32215;DHT22;18708;53.124;23.190;2023-03-08T07:33:04;3.10;1.00
32215;DHT22;18708;53.124;23.190;2023-03-08T07:35:29;3.00;1.00
32215;DHT22;18708;53.124;23.190;2023-03-08T07:37:55;3.30;1.00
32215;DHT22;18708;53.124;23.190;2023-03-08T07:40:21;3.00;1.00
32215;DHT22;18708;53.124;23.190;2023-03-08T07:42:46;2.90;1.00
32215;DHT22;18708;53.124;23.190;2023-03-08T07:45:13;3.10;1.00
32215;DHT22;18708;53.124;23.190;2023-03-08T07:47:39;3.30;1.00
32215;DHT22;18708;53.124;23.190;2023-03-08T07:50:06;3.50;1.00
32215;DHT22;18708;53.124;23.190;2023-03-08T07:52:32;3.50;1.00
32215;DHT22;18708;53.124;23.190;2023-03-08T07:54:57;3.20;1.00
32215;DHT22;18708;53.124;23.190;2023-03-08T07:57:23;3.70;1.00
32215;DHT22;18708;53.124;23.190;2023-03-08T07:59:50;3.80;1.00
32215;DHT22;18708;53.124;23.190;2023-03-08T08:02:15;4.00;99.90
32215;DHT22;18708;53.124;23.190;2023-03-08T08:04:42;3.70;99.90
32215;DHT22;18708;53.124;23.190;2023-03-08T08:07:12;4.00;99.90
32215;DHT22;18708;53.124;23.190;2023-03-08T08:09:40;3.80;99.90
32215;DHT22;18708;53.124;23.190;2023-03-08T08:12:06;4.30;99.90
32215;DHT22;18708;53.124;23.190;2023-03-08T08:14:32;4.70;99.90
32215;DHT22;18708;53.124;23.190;2023-03-08T08:16:58;5.10;99.90
32215;DHT22;18708;53.124;23.190;2023-03-08T08:19:26;5.40;47.90
32215;DHT22;18708;53.124;23.190;2023-03-08T08:21:52;6.40;99.90
32215;DHT22;18708;53.124;23.190;2023-03-08T08:24:17;6.00;1.00
32215;DHT22;18708;53.124;23.190;2023-03-08T08:26:43;6.10;1.00
32215;DHT22;18708;53.124;23.190;2023-03-08T08:29:08;5.70;1.00
32215;DHT22;18708;53.124;23.190;2023-03-08T08:31:37;5.50;99.90
32215;DHT22;18708;53.124;23.190;2023-03-08T08:34:03;5.10;99.90
32215;DHT22;18708;53.124;23.190;2023-03-08T08:36:29;4.70;99.90
32215;DHT22;18708;53.124;23.190;2023-03-08T08:38:55;5.30;99.90
32215;DHT22;18708;53.124;23.190;2023-03-08T08:41:21;6.00;99.90
32215;DHT22;18708;53.124;23.190;2023-03-08T08:43:48;7.10;99.90
32215;DHT22;18708;53.124;23.190;2023-03-08T08:46:14;7.00;75.00
32215;DHT22;18708;53.124;23.190;2023-03-08T08:48:40;6.30;1.00
32215;DHT22;18708;53.124;23.190;2023-03-08T08:51:08;5.50;1.00
32215;DHT22;18708;53.124;23.190;2023-03-08T08:53:35;5.60;1.00
32215;DHT22;18708;53.124;23.190;2023-03-08T08:56:15;6.20;1.00
32215;DHT22;18708;53.124;23.190;2023-03-08T08:58:42;6.00;1.00
32215;DHT22;18708;53.124;23.190;2023-03-08T09:01:19;5.70;1.00
32215;DHT22;18708;53.124;23.190;2023-03-08T09:03:46;6.00;1.00
32215;DHT22;18708;53.124;23.190;2023-03-08T09:06:13;6.50;1.00
32215;DHT22;18708;53.124;23.190;2023-03-08T09:08:39;6.70;1.00
32215;DHT22;18708;53.124;23.190;2023-03-08T09:11:07;7.10;1.00
32215;DHT22;18708;53.124;23.190;2023-03-08T09:13:34;6.10;1.00
32215;DHT22;18708;53.124;23.190;2023-03-08T09:15:59;5.90;1.00
32215;DHT22;18708;53.124;23.190;2023-03-08T09:18:25;7.10;1.00
32215;DHT22;18708;53.124;23.190;2023-03-08T09:20:51;7.30;1.00
32215;DHT22;18708;53.124;23.190;2023-03-08T09:23:17;6.90;1.00
32215;DHT22;18708;53.124;23.190;2023-03-08T09:25:43;6.60;1.00
32215;DHT22;18708;53.124;23.190;2023-03-08T09:28:10;6.80;1.00
32215;DHT22;18708;53.124;23.190;2023-03-08T09:30:36;6.80;99.90
32215;DHT22;18708;53.124;23.190;2023-03-08T09:33:02;6.90;99.90
32215;DHT22;18708;53.124;23.190;2023-03-08T09:35:28;6.70;99.90
32215;DHT22;18708;53.124;23.190;2023-03-08T09:37:55;6.30;99.90
32215;DHT22;18708;53.124;23.190;2023-03-08T09:40:23;5.90;99.90
32215;DHT22;18708;53.124;23.190;2023-03-08T09:42:51;6.60;99.90
32215;DHT22;18708;53.124;23.190;2023-03-08T09:45:24;6.70;99.90
32215;DHT22;18708;53.124;23.190;2023-03-08T09:50:48;6.40;99.90
32215;DHT22;18708;53.124;23.190;2023-03-08T09:53:29;6.40;99.90
32215;DHT22;18708;53.124;23.190;2023-03-08T09:58:52;7.30;99.90
32215;DHT22;18708;53.124;23.190;2023-03-08T10:01:50;7.40;99.90
32215;DHT22;18708;53.124;23.190;2023-03-08T10:05:01;7.60;99.90
32215;DHT22;18708;53.124;23.190;2023-03-08T10:07:39;6.70;32.60
32215;DHT22;18708;53.124;23.190;2023-03-08T10:10:15;6.10;31.30
32215;DHT22;18708;53.124;23.190;2023-03-08T10:15:38;5.60;24.30
32215;DHT22;18708;53.124;23.190;2023-03-08T10:20:45;6.50;99.90
32215;DHT22;18708;53.124;23.190;2023-03-08T10:23:13;6.40;58.70
32215;DHT22;18708;53.124;23.190;2023-03-08T10:25:41;5.80;14.80
32215;DHT22;18708;53.124;23.190;2023-03-08T10:28:15;5.00;1.00
32215;DHT22;18708;53.124;23.190;2023-03-08T10:30:48;5.30;1.00
32215;DHT22;18708;53.124;23.190;2023-03-08T10:33:16;4.80;1.00
32215;DHT22;18708;53.124;23.190;2023-03-08T10:38:19;5.10;1.00
32215;DHT22;18708;53.124;23.190;2023-03-08T10:40:45;6.10;47.70
32215;DHT22;18708;53.124;23.190;2023-03-08T10:43:26;6.70;81.10
32215;DHT22;18708;53.124;23.190;2023-03-08T10:46:03;7.50;99.90
32215;DHT22;18708;53.124;23.190;2023-03-08T10:48:29;7.70;19.80
32215;DHT22;18708;53.124;23.190;2023-03-08T10:51:03;7.40;1.00
32215;DHT22;18708;53.124;23.190;2023-03-08T10:53:31;8.00;1.00
32215;DHT22;18708;53.124;23.190;2023-03-08T10:55:59;7.60;1.00
32215;DHT22;18708;53.124;23.190;2023-03-08T10:58:32;7.50;1.00
32215;DHT22;18708;53.124;23.190;2023-03-08T11:01:02;7.90;1.00
32215;DHT22;18708;53.124;23.190;2023-03-08T11:03:28;8.10;1.00
32215;DHT22;18708;53.124;23.190;2023-03-08T11:06:05;8.10;1.00
32215;DHT22;18708;53.124;23.190;2023-03-08T11:08:40;7.20;1.00
32215;DHT22;18708;53.124;23.190;2023-03-08T11:11:15;7.90;1.00
32215;DHT22;18708;53.124;23.190;2023-03-08T11:13:45;8.70;1.00
32215;DHT22;18708;53.124;23.190;2023-03-08T11:21:34;9.50;1.00
32215;DHT22;18708;53.124;23.190;2023-03-08T11:24:20;9.00;1.00
32215;DHT22;18708;53.124;23.190;2023-03-08T11:26:51;9.10;1.00
32215;DHT22;18708;53.124;23.190;2023-03-08T11:40:25;9.40;1.00
32215;DHT22;18708;53.124;23.190;2023-03-08T11:50:56;9.00;1.00
32215;DHT22;18708;53.124;23.190;2023-03-08T11:58:47;8.80;1.00
32215;DHT22;18708;53.124;23.190;2023-03-08T12:03:48;8.20;1.00
32215;DHT22;18708;53.124;23.190;2023-03-08T12:06:29;9.20;1.00
32215;DHT22;18708;53.124;23.190;2023-03-08T12:09:21;9.70;1.00
32215;DHT22;18708;53.124;23.190;2023-03-08T12:12:04;9.20;1.00
32215;DHT22;18708;53.124;23.190;2023-03-08T12:17:35;8.60;1.00
32215;DHT22;18708;53.124;23.190;2023-03-08T12:20:03;8.40;1.00
32215;DHT22;18708;53.124;23.190;2023-03-08T12:22:44;8.50;1.00
32215;DHT22;18708;53.124;23.190;2023-03-08T12:25:25;8.20;1.00
32215;DHT22;18708;53.124;23.190;2023-03-08T12:28:03;8.30;1.00
32215;DHT22;18708;53.124;23.190;2023-03-08T12:33:27;9.20;1.00
32215;DHT22;18708;53.124;23.190;2023-03-08T12:36:00;9.50;1.00
32215;DHT22;18708;53.124;23.190;2023-03-08T12:38:43;9.20;1.00
32215;DHT22;18708;53.124;23.190;2023-03-08T12:41:28;9.50;1.00
32215;DHT22;18708;53.124;23.190;2023-03-08T12:44:00;10.30;1.00
32215;DHT22;18708;53.124;23.190;2023-03-08T12:46:26;10.80;1.00
32215;DHT22;18708;53.124;23.190;2023-03-08T12:48:52;10.40;1.00
32215;DHT22;18708;53.124;23.190;2023-03-08T12:51:31;10.10;1.00
32215;DHT22;18708;53.124;23.190;2023-03-08T12:53:59;11.00;1.00
32215;DHT22;18708;53.124;23.190;2023-03-08T12:56:35;10.60;1.00
32215;DHT22;18708;53.124;23.190;2023-03-08T13:01:41;9.60;1.00
32215;DHT22;18708;53.124;23.190;2023-03-08T13:09:37;8.70;1.00
32215;DHT22;18708;53.124;23.190;2023-03-08T13:14:45;8.60;1.00
32215;DHT22;18708;53.124;23.190;2023-03-08T13:19:56;8.60;1.00
32215;DHT22;18708;53.124;23.190;2023-03-08T13:22:52;8.00;1.00
32215;DHT22;18708;53.124;23.190;2023-03-08T13:30:39;6.40;1.00
32215;DHT22;18708;53.124;23.190;2023-03-08T13:33:12;6.10;1.00
32215;DHT22;18708;53.124;23.190;2023-03-08T13:35:38;6.30;1.00
32215;DHT22;18708;53.124;23.190;2023-03-08T13:38:04;6.10;1.00
32215;DHT22;18708;53.124;23.190;2023-03-08T13:40:30;6.00;1.00
32215;DHT22;18708;53.124;23.190;2023-03-08T13:42:57;5.70;1.00
32215;DHT22;18708;53.124;23.190;2023-03-08T13:45:24;5.80;1.00
32215;DHT22;18708;53.124;23.190;2023-03-08T13:47:51;5.90;1.00
32215;DHT22;18708;53.124;23.190;2023-03-08T13:50:41;5.60;1.00
32215;DHT22;18708;53.124;23.190;2023-03-08T13:53:21;5.80;1.00
32215;DHT22;18708;53.124;23.190;2023-03-08T13:55:50;5.60;1.00
32215;DHT22;18708;53.124;23.190;2023-03-08T13:58:32;5.60;1.00
32215;DHT22;18708;53.124;23.190;2023-03-08T14:03:27;5.50;1.00
32215;DHT22;18708;53.124;23.190;2023-03-08T14:05:53;5.10;99.90
32215;DHT22;18708;53.124;23.190;2023-03-08T14:08:21;5.00;99.90
32215;DHT22;18708;53.124;23.190;2023-03-08T14:13:26;4.80;99.90
32215;DHT22;18708;53.124;23.190;2023-03-08T14:15:58;4.80;99.90
32215;DHT22;18708;53.124;23.190;2023-03-08T14:18:37;4.70;1.00
32215;DHT22;18708;53.124;23.190;2023-03-08T14:21:15;4.40;1.00
32215;DHT22;18708;53.124;23.190;2023-03-08T14:23:45;4.40;1.00
32215;DHT22;18708;53.124;23.190;2023-03-08T14:34:30;4.60;1.00
32215;DHT22;18708;53.124;23.190;2023-03-08T14:39:47;4.70;1.00
32215;DHT22;18708;53.124;23.190;2023-03-08T14:44:52;4.20;99.90
32215;DHT22;18708;53.124;23.190;2023-03-08T14:47:28;4.20;1.00
32215;DHT22;18708;53.124;23.190;2023-03-08T14:52:35;4.20;1.00
32215;DHT22;18708;53.124;23.190;2023-03-08T14:55:19;4.10;1.00
32215;DHT22;18708;53.124;23.190;2023-03-08T14:57:45;4.10;1.00
32215;DHT22;18708;53.124;23.190;2023-03-08T15:00:13;4.10;1.00
32215;DHT22;18708;53.124;23.190;2023-03-08T15:02:40;4.10;1.00
32215;DHT22;18708;53.124;23.190;2023-03-08T15:05:15;4.10;1.00
32215;DHT22;18708;53.124;23.190;2023-03-08T15:07:42;3.90;1.00
32215;DHT22;18708;53.124;23.190;2023-03-08T15:10:37;3.90;1.00
32215;DHT22;18708;53.124;23.190;2023-03-08T15:13:33;3.90;1.00
32215;DHT22;18708;53.124;23.190;2023-03-08T15:15:59;3.80;1.00
32215;DHT22;18708;53.124;23.190;2023-03-08T15:18:25;3.70;1.00
32215;DHT22;18708;53.124;23.190;2023-03-08T15:20:50;3.70;1.00
32215;DHT22;18708;53.124;23.190;2023-03-08T15:23:25;3.70;1.00
32215;DHT22;18708;53.124;23.190;2023-03-08T15:25:51;3.60;1.00
32215;DHT22;18708;53.124;23.190;2023-03-08T15:28:19;3.50;1.00
32215;DHT22;18708;53.124;23.190;2023-03-08T15:30:45;3.50;1.00
32215;DHT22;18708;53.124;23.190;2023-03-08T15:33:11;3.50;1.00
32215;DHT22;18708;53.124;23.190;2023-03-08T15:35:37;3.40;1.00
32215;DHT22;18708;53.124;23.190;2023-03-08T15:38:03;3.30;1.00
32215;DHT22;18708;53.124;23.190;2023-03-08T15:40:31;3.30;1.00
32215;DHT22;18708;53.124;23.190;2023-03-08T15:42:57;3.30;1.00
32215;DHT22;18708;53.124;23.190;2023-03-08T15:45:23;3.20;1.00
32215;DHT22;18708;53.124;23.190;2023-03-08T15:50:31;3.20;1.00
32215;DHT22;18708;53.124;23.190;2023-03-08T15:52:58;3.20;1.00
32215;DHT22;18708;53.124;23.190;2023-03-08T15:55:26;3.00;1.00
32215;DHT22;18708;53.124;23.190;2023-03-08T15:57:52;3.10;1.00
32215;DHT22;18708;53.124;23.190;2023-03-08T16:00:20;3.00;1.00
32215;DHT22;18708;53.124;23.190;2023-03-08T16:02:47;2.90;1.00
32215;DHT22;18708;53.124;23.190;2023-03-08T16:05:13;2.80;1.00
32215;DHT22;18708;53.124;23.190;2023-03-08T16:07:40;2.70;1.00
32215;DHT22;18708;53.124;23.190;2023-03-08T16:10:08;2.70;1.00
32215;DHT22;18708;53.124;23.190;2023-03-08T16:12:35;2.60;1.00
32215;DHT22;18708;53.124;23.190;2023-03-08T16:15:01;2.60;1.00
32215;DHT22;18708;53.124;23.190;2023-03-08T16:17:30;2.60;1.00
32215;DHT22;18708;53.124;23.190;2023-03-08T16:19:55;2.50;1.00
32215;DHT22;18708;53.124;23.190;2023-03-08T16:22:21;2.60;1.00
32215;DHT22;18708;53.124;23.190;2023-03-08T16:24:47;2.40;1.00
32215;DHT22;18708;53.124;23.190;2023-03-08T16:27:13;2.30;1.00
32215;DHT22;18708;53.124;23.190;2023-03-08T16:29:39;2.30;1.00
32215;DHT22;18708;53.124;23.190;2023-03-08T16:32:05;2.20;1.00
32215;DHT22;18708;53.124;23.190;2023-03-08T16:34:31;2.30;1.00
32215;DHT22;18708;53.124;23.190;2023-03-08T16:36:57;2.20;1.00
32215;DHT22;18708;53.124;23.190;2023-03-08T16:39:24;2.10;1.00
32215;DHT22;18708;53.124;23.190;2023-03-08T16:41:50;2.00;1.00
32215;DHT22;18708;53.124;23.190;2023-03-08T16:44:27;2.00;1.00
32215;DHT22;18708;53.124;23.190;2023-03-08T16:46:53;2.00;1.00
32215;DHT22;18708;53.124;23.190;2023-03-08T16:49:19;1.90;1.00
32215;DHT22;18708;53.124;23.190;2023-03-08T16:51:47;1.80;1.00
32215;DHT22;18708;53.124;23.190;2023-03-08T16:54:15;1.80;1.00
32215;DHT22;18708;53.124;23.190;2023-03-08T16:56:42;1.80;1.00
32215;DHT22;18708;53.124;23.190;2023-03-08T16:59:12;1.80;1.00
32215;DHT22;18708;53.124;23.190;2023-03-08T17:01:39;1.80;1.00
32215;DHT22;18708;53.124;23.190;2023-03-08T17:04:07;1.80;1.00
32215;DHT22;18708;53.124;23.190;2023-03-08T17:06:33;1.80;1.00
32215;DHT22;18708;53.124;23.190;2023-03-08T17:08:59;1.70;1.00
32215;DHT22;18708;53.124;23.190;2023-03-08T17:11:27;1.60;1.00
32215;DHT22;18708;53.124;23.190;2023-03-08T17:13:56;1.50;1.00
32215;DHT22;18708;53.124;23.190;2023-03-08T17:16:24;1.50;1.00
32215;DHT22;18708;53.124;23.190;2023-03-08T17:18:51;1.40;1.00
32215;DHT22;18708;53.124;23.190;2023-03-08T17:21:18;1.30;1.00
32215;DHT22;18708;53.124;23.190;2023-03-08T17:23:44;1.30;1.00
32215;DHT22;18708;53.124;23.190;2023-03-08T17:26:12;1.20;1.00